Gaschem Phoenix — ELUO6 — position and weather

sailwx.info

Track history (hours):
 
Tides and Currents Weather Stations Pressure Air Temp Water Temp Dewpoint Dewpoint Depression Visibility Wind Speed Wind Dir Waves Ship Positions

Gaschem Phoenix

Last reported at 2018-Feb-22 20:04 UTC. Time now 2018-Feb-23 14:47 UTC.
Position N 34°29' E 138°54'.

Length 100 m; draft 6 m.

Type: Ship. MMSI: 636090235.

Date/timePositionNaut miles runAvg speedWind from/ knotsBaromVisibWave heightAir tempDewpointWater temp
2018-Feb-22 20:04N 34°29' E 138°54'1 9.1
2018-Feb-22 19:59N 34°30' E 138°55'5 9.6
2018-Feb-22 19:30N 34°33' E 138°59'6 9.9
2018-Feb-22 18:54N 34°37' E 139°04'1210.6
2018-Feb-22 17:47N 34°47' E 139°12'410.1
2018-Feb-22 17:23N 34°49' E 139°16'410.1
2018-Feb-22 16:59N 34°52' E 139°20'810.1
2018-Feb-22 16:10N 34°56' E 139°28'210.2
2018-Feb-22 15:58N 34°58' E 139°30'510.0
2018-Feb-22 15:30N 35°00' E 139°35'510.3
2018-Feb-22 15:00N 35°04' E 139°39'510.2
2018-Feb-22 14:31N 35°07' E 139°44'510.4
2018-Feb-22 14:00N 35°12' E 139°46'510.4
2018-Feb-22 13:30N 35°17' E 139°45'510.7
2018-Feb-22 13:00N 35°22' E 139°42'5 9.8
2018-Feb-22 12:30N 35°26' E 139°46'510.7
2018-Feb-22 12:00N 35°29' E 139°51'510.6
2018-Feb-22 11:30N 35°31' E 139°57'4 0.5
2018-Feb-22 03:07N 35°31' E 140°02'0 1.1
2018-Feb-22 03:00N 35°31' E 140°02'3 6.0
2018-Feb-22 02:30N 35°31' E 139°58'3 6.1
2018-Feb-22 02:00N 35°31' E 139°55'3 5.6
2018-Feb-22 01:30N 35°29' E 139°52'3 6.4
2018-Feb-22 01:00N 35°27' E 139°50'3 6.5
2018-Feb-22 00:31N 35°24' E 139°47'3 6.7
2018-Feb-22 00:01N 35°21' E 139°45'4 8.1
2018-Feb-21 23:30N 35°17' E 139°45'510.4
2018-Feb-21 23:00N 35°12' E 139°47'510.9
2018-Feb-21 22:30N 35°07' E 139°46'510.6
2018-Feb-21 22:01N 35°03' E 139°41'510.7
2018-Feb-21 21:30N 34°60' E 139°36'1610.2
2018-Feb-21 19:59N 34°50' E 139°21'1410.7
2018-Feb-21 18:43N 34°40' E 139°10'211.0
2018-Feb-21 18:30N 34°38' E 139°09'611.0
2018-Feb-21 17:57N 34°33' E 139°04'511.4
2018-Feb-21 17:29N 34°29' E 139°01'355 6.9
2018-Feb-19 14:17N 33°14' E 132°02'5 8.8
2018-Feb-19 13:42N 33°18' E 131°59'3 7.1
2018-Feb-19 13:15N 33°19' E 131°55'5 7.9
2018-Feb-19 12:38N 33°18' E 131°50'2 8.4
2018-Feb-19 12:25N 33°18' E 131°47'4 9.1
2018-Feb-19 11:59N 33°18' E 131°43'2 0.2
2018-Feb-19 01:14N 33°16' E 131°41'1 2.8
2018-Feb-19 00:59N 33°17' E 131°41'3 6.3
2018-Feb-19 00:28N 33°17' E 131°45'2 2.0
2018-Feb-18 23:42N 33°17' E 131°46'0 0.2
2018-Feb-18 23:24N 33°17' E 131°46'0 0.0
2018-Feb-18 21:35N 33°17' E 131°46'0 0.1
2018-Feb-18 21:05N 33°17' E 131°46'0 0.4
2018-Feb-18 20:58N 33°17' E 131°46'0 0.1
2018-Feb-18 20:10N 33°16' E 131°46'0 0.0
2018-Feb-18 19:58N 33°16' E 131°46'0 0.1
2018-Feb-18 18:57N 33°16' E 131°46'0 0.2
2018-Feb-18 18:30N 33°17' E 131°46'3 5.4
2018-Feb-18 17:58N 33°19' E 131°47'612.1
2018-Feb-18 17:28N 33°25' E 131°50'613.4
2018-Feb-18 17:00N 33°31' E 131°51'713.6
2018-Feb-18 16:30N 33°37' E 131°48'613.1
2018-Feb-18 16:00N 33°43' E 131°44'611.7
2018-Feb-18 15:30N 33°46' E 131°38'612.5
2018-Feb-18 15:00N 33°48' E 131°31'612.3
2018-Feb-18 14:30N 33°49' E 131°24'612.0
2018-Feb-18 14:00N 33°50' E 131°17'611.6
2018-Feb-18 13:30N 33°52' E 131°10'611.1
2018-Feb-18 13:00N 33°56' E 131°05'510.2
2018-Feb-18 12:30N 33°58' E 130°60'4 8.4
2018-Feb-18 12:00N 33°55' E 130°56'4 7.4
2018-Feb-18 11:30N 33°56' E 130°52'510.1
2018-Feb-18 11:00N 34°01' E 130°50'611.5
2018-Feb-18 10:30N 34°03' E 130°43'611.5
2018-Feb-18 10:00N 34°02' E 130°36'611.6
2018-Feb-18 09:30N 34°01' E 130°30'611.3
2018-Feb-18 09:00N 34°01' E 130°23'611.4
2018-Feb-18 08:30N 34°01' E 130°16'611.4
2018-Feb-18 08:00N 33°60' E 130°09'611.4
2018-Feb-18 07:30N 33°59' E 130°02'  
2018-Feb-14 05:32N 31°43' E 121°07'111.2
2018-Feb-14 05:27N 31°43' E 121°08'511.3
2018-Feb-14 05:01N 31°40' E 121°13'612.2
2018-Feb-14 04:30N 31°35' E 121°18'510.6
2018-Feb-14 04:00N 31°32' E 121°23'510.8
2018-Feb-14 03:31N 31°28' E 121°27'610.4
2018-Feb-14 02:54N 31°24' E 121°33'2311.0
2018-Feb-14 00:49N 31°09' E 121°53'512.5
2018-Feb-14 00:27N 31°07' E 121°58'511.8
2018-Feb-14 00:00N 31°04' E 122°03'612.6
2018-Feb-13 23:30N 31°03' E 122°10'5 9.5
2018-Feb-13 23:00N 31°03' E 122°16'611.0
2018-Feb-13 22:30N 31°02' E 122°23'  
Track history (hours):
 
Tides and Currents Weather Stations Pressure Air Temp Water Temp Dewpoint Dewpoint Depression Visibility Wind Speed Wind Dir Waves Ship Positions

Gaschem Phoenix

Last reported at 2018-Feb-22 20:04 UTC. Time now 2018-Feb-23 14:47 UTC.
Position N 34°29' E 138°54'.

Length 100 m; draft 6 m.

Type: Ship. MMSI: 636090235.

Date/timePositionNaut miles runAvg speedWind from/ knotsBaromVisibWave heightAir tempDewpointWater temp
2018-Feb-22 20:04N 34°29' E 138°54'1 9.1
2018-Feb-22 19:59N 34°30' E 138°55'5 9.6
2018-Feb-22 19:30N 34°33' E 138°59'6 9.9
2018-Feb-22 18:54N 34°37' E 139°04'1210.6
2018-Feb-22 17:47N 34°47' E 139°12'410.1
2018-Feb-22 17:23N 34°49' E 139°16'410.1
2018-Feb-22 16:59N 34°52' E 139°20'810.1
2018-Feb-22 16:10N 34°56' E 139°28'210.2
2018-Feb-22 15:58N 34°58' E 139°30'510.0
2018-Feb-22 15:30N 35°00' E 139°35'510.3
2018-Feb-22 15:00N 35°04' E 139°39'510.2
2018-Feb-22 14:31N 35°07' E 139°44'510.4
2018-Feb-22 14:00N 35°12' E 139°46'510.4
2018-Feb-22 13:30N 35°17' E 139°45'510.7
2018-Feb-22 13:00N 35°22' E 139°42'5 9.8
2018-Feb-22 12:30N 35°26' E 139°46'510.7
2018-Feb-22 12:00N 35°29' E 139°51'510.6
2018-Feb-22 11:30N 35°31' E 139°57'4 0.5
2018-Feb-22 03:07N 35°31' E 140°02'0 1.1
2018-Feb-22 03:00N 35°31' E 140°02'3 6.0
2018-Feb-22 02:30N 35°31' E 139°58'3 6.1
2018-Feb-22 02:00N 35°31' E 139°55'3 5.6
2018-Feb-22 01:30N 35°29' E 139°52'3 6.4
2018-Feb-22 01:00N 35°27' E 139°50'3 6.5
2018-Feb-22 00:31N 35°24' E 139°47'3 6.7
2018-Feb-22 00:01N 35°21' E 139°45'4 8.1
2018-Feb-21 23:30N 35°17' E 139°45'510.4
2018-Feb-21 23:00N 35°12' E 139°47'510.9
2018-Feb-21 22:30N 35°07' E 139°46'510.6
2018-Feb-21 22:01N 35°03' E 139°41'510.7
2018-Feb-21 21:30N 34°60' E 139°36'1610.2
2018-Feb-21 19:59N 34°50' E 139°21'1410.7
2018-Feb-21 18:43N 34°40' E 139°10'211.0
2018-Feb-21 18:30N 34°38' E 139°09'611.0
2018-Feb-21 17:57N 34°33' E 139°04'511.4
2018-Feb-21 17:29N 34°29' E 139°01'355 6.9
2018-Feb-19 14:17N 33°14' E 132°02'5 8.8
2018-Feb-19 13:42N 33°18' E 131°59'3 7.1
2018-Feb-19 13:15N 33°19' E 131°55'5 7.9
2018-Feb-19 12:38N 33°18' E 131°50'2 8.4
2018-Feb-19 12:25N 33°18' E 131°47'4 9.1
2018-Feb-19 11:59N 33°18' E 131°43'2 0.2
2018-Feb-19 01:14N 33°16' E 131°41'1 2.8
2018-Feb-19 00:59N 33°17' E 131°41'3 6.3
2018-Feb-19 00:28N 33°17' E 131°45'2 2.0
2018-Feb-18 23:42N 33°17' E 131°46'0 0.2
2018-Feb-18 23:24N 33°17' E 131°46'0 0.0
2018-Feb-18 21:35N 33°17' E 131°46'0 0.1
2018-Feb-18 21:05N 33°17' E 131°46'0 0.4
2018-Feb-18 20:58N 33°17' E 131°46'0 0.1
2018-Feb-18 20:10N 33°16' E 131°46'0 0.0
2018-Feb-18 19:58N 33°16' E 131°46'0 0.1
2018-Feb-18 18:57N 33°16' E 131°46'0 0.2
2018-Feb-18 18:30N 33°17' E 131°46'3 5.4
2018-Feb-18 17:58N 33°19' E 131°47'612.1
2018-Feb-18 17:28N 33°25' E 131°50'613.4
2018-Feb-18 17:00N 33°31' E 131°51'713.6
2018-Feb-18 16:30N 33°37' E 131°48'613.1
2018-Feb-18 16:00N 33°43' E 131°44'611.7
2018-Feb-18 15:30N 33°46' E 131°38'612.5
2018-Feb-18 15:00N 33°48' E 131°31'612.3
2018-Feb-18 14:30N 33°49' E 131°24'612.0
2018-Feb-18 14:00N 33°50' E 131°17'611.6
2018-Feb-18 13:30N 33°52' E 131°10'611.1
2018-Feb-18 13:00N 33°56' E 131°05'510.2
2018-Feb-18 12:30N 33°58' E 130°60'4 8.4
2018-Feb-18 12:00N 33°55' E 130°56'4 7.4
2018-Feb-18 11:30N 33°56' E 130°52'510.1
2018-Feb-18 11:00N 34°01' E 130°50'611.5
2018-Feb-18 10:30N 34°03' E 130°43'611.5
2018-Feb-18 10:00N 34°02' E 130°36'611.6
2018-Feb-18 09:30N 34°01' E 130°30'611.3
2018-Feb-18 09:00N 34°01' E 130°23'611.4
2018-Feb-18 08:30N 34°01' E 130°16'611.4
2018-Feb-18 08:00N 33°60' E 130°09'611.4
2018-Feb-18 07:30N 33°59' E 130°02'  
2018-Feb-14 05:32N 31°43' E 121°07'111.2
2018-Feb-14 05:27N 31°43' E 121°08'511.3
2018-Feb-14 05:01N 31°40' E 121°13'612.2
2018-Feb-14 04:30N 31°35' E 121°18'510.6
2018-Feb-14 04:00N 31°32' E 121°23'510.8
2018-Feb-14 03:31N 31°28' E 121°27'610.4
2018-Feb-14 02:54N 31°24' E 121°33'2311.0
2018-Feb-14 00:49N 31°09' E 121°53'512.5
2018-Feb-14 00:27N 31°07' E 121°58'511.8
2018-Feb-14 00:00N 31°04' E 122°03'612.6
2018-Feb-13 23:30N 31°03' E 122°10'5 9.5
2018-Feb-13 23:00N 31°03' E 122°16'611.0
2018-Feb-13 22:30N 31°02' E 122°23'  

Dump ship's entire track history